Time;durP1;ratioP1;P1;durP2;ratioP2;P2;SDS_P1;SDS_P2;PMS_P1;PMS_P2;Temp;Humidity;BMP_temperature;BMP_pressure;BME280_temperature;BME280_humidity;BME280_pressure;Samples;Min_cycle;Max_cycle;Signal;HPM_P1;HPM_P2
2022/07/19 00:00:26;;;;;;;8.03;6.50;;;24.60;26.90;;;;;;4972993;28;20190;-72
2022/07/19 00:02:52;;;;;;;10.13;6.43;;;24.40;27.00;;;;;;4973136;28;20221;-72
2022/07/19 00:05:19;;;;;;;11.23;7.10;;;24.30;27.20;;;;;;4974106;28;20170;-72
2022/07/19 00:07:45;;;;;;;19.83;7.90;;;24.30;27.00;;;;;;4971071;28;20206;-72
2022/07/19 00:10:13;;;;;;;12.57;7.23;;;24.30;27.50;;;;;;4967711;28;20440;-72
2022/07/19 00:12:40;;;;;;;13.00;8.60;;;24.30;27.00;;;;;;4972676;28;20453;-72
2022/07/19 00:15:08;;;;;;;13.97;8.83;;;24.20;26.90;;;;;;4973866;28;20422;-72
2022/07/19 00:17:34;;;;;;;18.10;9.10;;;24.00;26.40;;;;;;4973840;28;20453;-72
2022/07/19 00:20:01;;;;;;;10.80;8.60;;;23.70;27.20;;;;;;4972179;28;20432;-72
2022/07/19 00:22:26;;;;;;;9.60;8.30;;;23.90;27.40;;;;;;4972515;28;20225;-72
2022/07/19 00:24:52;;;;;;;12.60;9.50;;;23.70;27.20;;;;;;4973138;28;20535;-72
2022/07/19 00:27:17;;;;;;;20.00;9.60;;;23.50;26.90;;;;;;4971731;28;20205;-72
2022/07/19 00:29:43;;;;;;;11.93;8.10;;;23.50;27.20;;;;;;4970818;28;20191;-72
2022/07/19 00:32:09;;;;;;;12.20;9.20;;;23.60;28.10;;;;;;4971553;28;20222;-72
2022/07/19 00:34:34;;;;;;;15.57;10.70;;;23.80;27.60;;;;;;4973141;28;20183;-72
2022/07/19 00:37:00;;;;;;;12.17;9.63;;;23.70;27.50;;;;;;4971999;28;20220;-72
2022/07/19 00:39:26;;;;;;;11.10;9.30;;;23.60;26.80;;;;;;4967015;28;20702;-72
2022/07/19 00:41:51;;;;;;;17.17;10.70;;;23.50;27.30;;;;;;4971414;28;20971;-72
2022/07/19 00:44:22;;;;;;;11.40;8.30;;;23.50;27.00;;;;;;4972386;28;20186;-72
2022/07/19 00:46:48;;;;;;;12.70;9.07;;;23.60;27.40;;;;;;4973574;28;20206;-72
2022/07/19 00:49:14;;;;;;;10.73;8.17;;;23.70;28.20;;;;;;4964438;28;20437;-72
2022/07/19 00:51:40;;;;;;;13.53;8.57;;;23.50;27.90;;;;;;4970336;28;20483;-72
2022/07/19 00:54:10;;;;;;;13.40;8.93;;;23.50;28.00;;;;;;4971838;28;20178;-73
2022/07/19 00:56:37;;;;;;;13.10;9.03;;;23.40;28.40;;;;;;4965618;28;20483;-73
2022/07/19 00:59:04;;;;;;;22.23;9.70;;;23.40;28.40;;;;;;4965305;28;20503;-72
2022/07/19 01:01:30;;;;;;;18.10;8.80;;;23.30;28.40;;;;;;4970783;28;21044;-72
2022/07/19 01:03:56;;;;;;;14.83;9.30;;;23.40;28.60;;;;;;4972834;28;20449;-72
2022/07/19 01:06:22;;;;;;;14.83;9.20;;;23.40;28.40;;;;;;4968123;28;21016;-72
2022/07/19 01:08:48;;;;;;;12.30;9.07;;;23.30;28.90;;;;;;4972928;28;20456;-72
2022/07/19 01:11:14;;;;;;;12.23;9.40;;;23.30;28.30;;;;;;4964151;28;20218;-72
2022/07/19 01:13:40;;;;;;;15.20;10.90;;;23.30;29.50;;;;;;4967223;28;20221;-72
2022/07/19 01:16:05;;;;;;;15.13;10.07;;;23.30;28.40;;;;;;4965945;28;20206;-72
2022/07/19 01:18:31;;;;;;;15.10;9.77;;;23.20;28.30;;;;;;4971489;28;20271;-72
2022/07/19 01:20:58;;;;;;;10.70;9.10;;;23.20;29.30;;;;;;4964515;28;20518;-72
2022/07/19 01:23:24;;;;;;;19.70;7.97;;;23.10;28.90;;;;;;4969922;28;20205;-72
2022/07/19 01:25:50;;;;;;;11.37;7.50;;;22.80;29.00;;;;;;4972571;28;20447;-72
2022/07/19 01:28:16;;;;;;;12.80;7.70;;;22.60;29.70;;;;;;4957797;28;20181;-72
2022/07/19 01:30:41;;;;;;;18.00;8.87;;;22.80;29.60;;;;;;4971812;28;20222;-72
2022/07/19 01:33:07;;;;;;;13.63;9.50;;;22.80;29.30;;;;;;4971228;28;20239;-71
2022/07/19 01:35:33;;;;;;;20.70;9.77;;;22.80;28.80;;;;;;4970864;28;20200;-72
2022/07/19 01:37:58;;;;;;;16.00;9.37;;;22.50;29.70;;;;;;4971522;28;20192;-72
2022/07/19 01:40:25;;;;;;;14.60;8.87;;;22.40;29.80;;;;;;4972244;28;20191;-71
2022/07/19 01:42:51;;;;;;;9.23;7.70;;;22.40;29.50;;;;;;4963967;28;20203;-72
2022/07/19 01:45:17;;;;;;;10.60;8.30;;;22.50;29.50;;;;;;4970513;28;20430;-71
2022/07/19 01:47:43;;;;;;;10.20;7.63;;;22.60;29.60;;;;;;4970483;28;20472;-72
2022/07/19 01:50:11;;;;;;;13.70;8.20;;;22.50;29.10;;;;;;4965659;28;20527;-71
2022/07/19 01:52:37;;;;;;;10.67;7.63;;;22.50;29.50;;;;;;4971278;28;20481;-71
2022/07/19 01:55:03;;;;;;;12.30;8.63;;;22.50;29.60;;;;;;4970709;28;20435;-72
2022/07/19 01:57:29;;;;;;;13.33;8.13;;;22.50;29.60;;;;;;4972113;28;20512;-72
2022/07/19 01:59:55;;;;;;;13.50;7.43;;;22.50;29.60;;;;;;4964159;28;20430;-71
2022/07/19 02:02:21;;;;;;;13.70;7.93;;;22.50;29.80;;;;;;4971563;28;20429;-72
2022/07/19 02:04:46;;;;;;;13.37;7.97;;;22.30;30.00;;;;;;4964127;28;20250;-72
2022/07/19 02:07:12;;;;;;;10.93;7.10;;;22.20;30.10;;;;;;4969897;28;20288;-72
2022/07/19 02:09:38;;;;;;;13.00;8.03;;;22.20;30.50;;;;;;4971861;28;20270;-72
2022/07/19 02:12:04;;;;;;;12.53;8.40;;;22.20;30.20;;;;;;4969683;28;20243;-72
2022/07/19 02:14:29;;;;;;;23.83;8.90;;;22.40;30.00;;;;;;4971572;28;20561;-72
2022/07/19 02:16:55;;;;;;;13.70;8.90;;;22.30;30.80;;;;;;4962752;28;20296;-71
2022/07/19 02:19:21;;;;;;;11.70;8.03;;;22.40;29.80;;;;;;4965554;28;20220;-72
2022/07/19 02:21:47;;;;;;;17.50;7.70;;;22.50;30.00;;;;;;4970388;28;20286;-71
2022/07/19 02:24:13;;;;;;;17.23;7.93;;;22.40;30.80;;;;;;4970974;28;20451;-72
2022/07/19 02:26:39;;;;;;;18.60;7.87;;;22.30;30.70;;;;;;4971979;28;20207;-72
2022/07/19 02:29:05;;;;;;;13.00;7.97;;;22.10;30.80;;;;;;4970844;28;20511;-71
2022/07/19 02:31:30;;;;;;;12.70;8.10;;;22.10;31.40;;;;;;4970591;28;20234;-72
2022/07/19 02:33:56;;;;;;;13.43;8.50;;;22.20;30.90;;;;;;4971090;28;20469;-71
2022/07/19 02:36:21;;;;;;;17.67;9.27;;;22.10;31.00;;;;;;4970077;28;20218;-72
2022/07/19 02:38:47;;;;;;;11.73;8.57;;;22.00;30.90;;;;;;4972081;28;20660;-71
2022/07/19 02:41:13;;;;;;;14.23;8.87;;;22.10;31.90;;;;;;4969494;28;20195;-72
2022/07/19 02:43:40;;;;;;;11.90;8.27;;;22.00;30.90;;;;;;4968155;28;20178;-72
2022/07/19 02:46:06;;;;;;;15.83;8.20;;;22.00;31.20;;;;;;4971782;28;21012;-71
2022/07/19 02:48:31;;;;;;;12.00;8.20;;;21.90;31.90;;;;;;4963913;28;20518;-72
2022/07/19 02:50:57;;;;;;;11.90;8.17;;;21.90;31.40;;;;;;4970416;28;20208;-72
2022/07/19 02:53:23;;;;;;;13.03;8.67;;;22.00;31.70;;;;;;4966900;28;20193;-72
2022/07/19 02:55:49;;;;;;;21.70;9.33;;;21.80;31.10;;;;;;4967237;28;20455;-72
2022/07/19 02:58:14;;;;;;;13.83;7.87;;;21.90;31.30;;;;;;4971557;28;20619;-72
2022/07/19 03:00:40;;;;;;;21.07;8.93;;;22.10;30.90;;;;;;4967569;28;20180;-72
2022/07/19 03:05:50;;;;;;;14.43;8.93;;;21.70;32.30;;;;;;4965202;28;20687;-71
2022/07/19 03:08:16;;;;;;;23.90;9.10;;;21.80;32.00;;;;;;4969145;28;21463;-72
2022/07/19 03:10:41;;;;;;;13.17;8.43;;;21.60;32.60;;;;;;4971283;28;20217;-71
2022/07/19 03:13:08;;;;;;;13.70;7.97;;;21.60;31.90;;;;;;4966492;28;20655;-72
2022/07/19 03:15:35;;;;;;;13.47;7.77;;;21.90;31.20;;;;;;4967286;28;20768;-72
2022/07/19 03:18:00;;;;;;;11.47;7.60;;;21.90;31.90;;;;;;4969747;28;20442;-72
2022/07/19 03:20:26;;;;;;;19.47;8.03;;;21.90;32.10;;;;;;4963757;28;20432;-72
2022/07/19 03:22:51;;;;;;;16.03;8.40;;;21.70;31.90;;;;;;4974340;28;20188;-72
2022/07/19 03:25:17;;;;;;;21.13;8.13;;;21.70;32.30;;;;;;4972512;28;20273;-72
2022/07/19 03:27:43;;;;;;;14.80;9.10;;;21.60;32.00;;;;;;4971722;28;20197;-71
2022/07/19 03:30:09;;;;;;;16.90;8.57;;;21.50;32.10;;;;;;4963437;28;20243;-71
2022/07/19 03:32:34;;;;;;;22.80;8.30;;;21.60;32.20;;;;;;4964783;28;20258;-71
2022/07/19 03:35:00;;;;;;;12.30;8.50;;;21.40;31.60;;;;;;4972739;28;20475;-72
2022/07/19 03:37:25;;;;;;;12.70;8.40;;;24.60;35.30;;;;;;4966036;28;20225;-72
2022/07/19 03:39:51;;;;;;;23.27;8.77;;;21.30;32.80;;;;;;4974569;28;20197;-72
2022/07/19 03:42:17;;;;;;;15.17;8.53;;;21.40;32.30;;;;;;4974106;28;20191;-71
2022/07/19 03:44:42;;;;;;;13.13;9.30;;;21.40;32.30;;;;;;4964397;28;20194;-71
2022/07/19 03:47:08;;;;;;;19.43;9.73;;;21.40;32.10;;;;;;4973952;28;20285;-72
2022/07/19 03:49:33;;;;;;;13.07;9.20;;;21.30;32.30;;;;;;4966379;28;20245;-72
2022/07/19 03:51:59;;;;;;;16.50;8.67;;;21.30;32.70;;;;;;4973943;28;20210;-72
2022/07/19 03:54:25;;;;;;;13.33;9.40;;;21.40;32.60;;;;;;4973351;28;20189;-72
2022/07/19 03:56:50;;;;;;;15.17;10.30;;;21.40;32.90;;;;;;4972136;28;20341;-72
2022/07/19 03:59:16;;;;;;;14.50;9.80;;;21.20;32.60;;;;;;4970317;28;20515;-72
2022/07/19 04:01:42;;;;;;;15.20;9.30;;;21.20;33.20;;;;;;4971044;28;20231;-71
2022/07/19 04:04:07;;;;;;;14.87;9.67;;;21.20;32.80;;;;;;4970164;28;20262;-72
2022/07/19 04:06:33;;;;;;;13.27;10.20;;;21.30;32.80;;;;;;4972037;28;20255;-72
2022/07/19 04:08:59;;;;;;;15.80;11.57;;;21.20;33.70;;;;;;4970978;28;20195;-72
2022/07/19 04:11:24;;;;;;;22.10;11.57;;;21.10;32.80;;;;;;4973410;28;20691;-71
2022/07/19 04:13:50;;;;;;;19.43;11.57;;;21.20;32.90;;;;;;4973054;28;20262;-71
2022/07/19 04:16:16;;;;;;;21.63;12.50;;;21.20;32.40;;;;;;4971264;28;20314;-72
2022/07/19 04:18:41;;;;;;;16.10;12.03;;;21.20;32.90;;;;;;4972294;28;20652;-72
2022/07/19 04:21:08;;;;;;;21.43;12.10;;;21.10;32.40;;;;;;4972903;28;20200;-71
2022/07/19 04:23:33;;;;;;;29.17;12.43;;;20.90;32.80;;;;;;4973371;28;20678;-72
2022/07/19 04:25:59;;;;;;;21.67;12.17;;;20.90;33.30;;;;;;4965364;28;20549;-72
2022/07/19 04:28:25;;;;;;;22.33;11.33;;;21.10;33.00;;;;;;4970660;28;20535;-72
2022/07/19 04:30:51;;;;;;;22.37;10.27;;;21.20;32.80;;;;;;4972682;28;20557;-72
2022/07/19 04:33:18;;;;;;;17.90;8.40;;;21.10;32.80;;;;;;4965161;28;20246;-72
2022/07/19 04:35:45;;;;;;;21.53;9.40;;;20.90;32.60;;;;;;4965320;28;20434;-72
2022/07/19 04:38:10;;;;;;;16.50;8.90;;;20.90;32.80;;;;;;4972381;28;20485;-72
2022/07/19 04:40:37;;;;;;;16.67;9.70;;;21.00;32.90;;;;;;4972158;28;20436;-72
2022/07/19 04:43:03;;;;;;;16.33;9.97;;;21.10;32.50;;;;;;4972880;28;20266;-72
2022/07/19 04:45:28;;;;;;;17.03;9.17;;;21.20;32.60;;;;;;4973066;28;20523;-71
2022/07/19 04:47:54;;;;;;;19.33;9.13;;;21.40;32.50;;;;;;4971927;28;20455;-72
2022/07/19 04:50:20;;;;;;;18.80;10.90;;;21.40;32.80;;;;;;4970796;28;20182;-72
2022/07/19 04:52:46;;;;;;;24.43;10.67;;;21.40;32.10;;;;;;4971861;28;20742;-72
2022/07/19 04:55:11;;;;;;;25.03;12.70;;;21.50;32.20;;;;;;4972677;28;20492;-72
2022/07/19 04:57:37;;;;;;;20.67;12.57;;;21.40;32.00;;;;;;4972881;28;20199;-71
2022/07/19 05:00:09;;;;;;;25.17;15.87;;;21.10;32.30;;;;;;4971348;28;20226;-72
2022/07/19 05:02:36;;;;;;;19.53;13.40;;;20.90;32.70;;;;;;4966209;28;20181;-72
2022/07/19 05:05:02;;;;;;;15.23;10.70;;;20.90;33.10;;;;;;4963525;28;20438;-71
2022/07/19 05:07:28;;;;;;;16.90;9.80;;;20.90;33.00;;;;;;4963567;28;20453;-71
2022/07/19 05:09:53;;;;;;;16.83;9.70;;;20.90;33.40;;;;;;4972063;28;20446;-71
2022/07/19 05:12:19;;;;;;;15.83;9.50;;;20.70;33.30;;;;;;4968810;28;20248;-72
2022/07/19 05:14:45;;;;;;;28.13;10.47;;;20.80;34.00;;;;;;4965520;28;20251;-72
2022/07/19 05:17:10;;;;;;;32.90;9.50;;;21.20;33.10;;;;;;4955379;28;20201;-72
2022/07/19 05:19:36;;;;;;;18.93;10.40;;;21.30;32.90;;;;;;4972432;28;20196;-71
2022/07/19 05:22:01;;;;;;;17.23;10.33;;;21.70;33.20;;;;;;4972812;28;20710;-71
2022/07/19 05:24:27;;;;;;;16.60;9.40;;;22.10;31.80;;;;;;4971990;28;20203;-71
2022/07/19 05:26:53;;;;;;;21.13;10.07;;;22.20;32.30;;;;;;4980503;28;20219;-72
2022/07/19 05:29:19;;;;;;;20.33;9.43;;;22.10;31.70;;;;;;4981466;28;20179;-71
2022/07/19 05:31:44;;;;;;;12.70;9.40;;;21.90;30.70;;;;;;4969287;28;20299;-71
2022/07/19 05:34:10;;;;;;;16.10;9.97;;;21.70;30.80;;;;;;4967767;28;20430;-71
2022/07/19 05:36:36;;;;;;;14.50;8.90;;;21.60;31.10;;;;;;4963425;28;20212;-70
2022/07/19 05:39:02;;;;;;;20.73;9.83;;;21.90;30.80;;;;;;4968840;28;20190;-69
2022/07/19 05:41:28;;;;;;;35.27;10.67;;;22.10;30.30;;;;;;4970771;28;20277;-69
2022/07/19 05:43:53;;;;;;;23.70;10.30;;;21.90;30.60;;;;;;4969697;28;20194;-69
2022/07/19 05:46:20;;;;;;;17.23;9.40;;;21.60;32.30;;;;;;4972107;28;20211;-70
2022/07/19 05:48:45;;;;;;;27.63;10.40;;;21.80;31.30;;;;;;4972961;28;20261;-69
2022/07/19 05:51:11;;;;;;;20.23;10.43;;;21.70;31.40;;;;;;4971921;28;20598;-69
2022/07/19 05:53:37;;;;;;;39.37;10.00;;;21.70;30.70;;;;;;4970943;28;20458;-69
2022/07/19 05:56:04;;;;;;;13.67;9.80;;;21.60;31.20;;;;;;4972037;28;20206;-70
2022/07/19 05:58:29;;;;;;;26.50;10.70;;;21.50;31.70;;;;;;4972554;28;20221;-70
2022/07/19 06:03:39;;;;;;;21.83;9.63;;;22.80;30.80;;;;;;4972551;28;20304;-70
2022/07/19 06:06:05;;;;;;;30.37;11.13;;;22.50;29.70;;;;;;4966480;28;20903;-69
2022/07/19 06:08:30;;;;;;;18.93;9.90;;;22.20;30.00;;;;;;4971339;28;20195;-69
2022/07/19 06:10:56;;;;;;;29.73;11.10;;;22.30;30.20;;;;;;4971219;28;20669;-69
2022/07/19 06:13:22;;;;;;;32.00;11.37;;;22.10;30.10;;;;;;4971880;28;20272;-69
2022/07/19 06:15:47;;;;;;;26.13;12.77;;;22.00;30.50;;;;;;4972623;28;20204;-69
2022/07/19 06:18:13;;;;;;;26.37;14.93;;;22.30;29.70;;;;;;4968231;28;20919;-71
2022/07/19 06:20:39;;;;;;;28.57;13.90;;;22.00;31.00;;;;;;4969526;28;20189;-69
2022/07/19 06:23:04;;;;;;;25.80;10.53;;;21.90;31.20;;;;;;4970128;28;20193;-69
2022/07/19 06:25:30;;;;;;;25.30;10.47;;;21.90;30.80;;;;;;4969718;28;20192;-69
2022/07/19 06:27:55;;;;;;;20.30;9.47;;;22.30;30.00;;;;;;4972483;28;20185;-69
2022/07/19 06:30:21;;;;;;;34.73;10.27;;;22.30;29.60;;;;;;4972250;28;20255;-69
2022/07/19 06:32:46;;;;;;;16.77;9.30;;;22.30;30.00;;;;;;4969978;28;20213;-73
2022/07/19 06:35:12;;;;;;;16.70;9.50;;;22.60;30.00;;;;;;4971342;28;20214;-70
2022/07/19 06:37:38;;;;;;;21.50;10.60;;;23.10;29.60;;;;;;4970988;28;20222;-70
2022/07/19 06:40:04;;;;;;;24.23;10.80;;;23.30;29.10;;;;;;4971792;28;20260;-70
2022/07/19 06:42:30;;;;;;;17.40;11.00;;;23.70;28.00;;;;;;4971628;28;20190;-70
2022/07/19 06:44:56;;;;;;;17.67;12.87;;;24.10;28.90;;;;;;4968848;28;20437;-70
2022/07/19 06:47:21;;;;;;;21.13;12.27;;;24.20;27.60;;;;;;4964139;28;20205;-70
2022/07/19 06:49:47;;;;;;;18.67;10.40;;;23.90;27.70;;;;;;4972847;28;20441;-70
2022/07/19 06:52:13;;;;;;;23.43;12.33;;;23.90;28.80;;;;;;4973898;28;20693;-70
2022/07/19 06:54:38;;;;;;;22.03;11.43;;;23.80;28.70;;;;;;4974774;28;20535;-70
2022/07/19 06:57:06;;;;;;;22.63;11.70;;;24.10;28.20;;;;;;4974246;28;20221;-69
2022/07/19 06:59:31;;;;;;;18.90;10.80;;;24.30;27.90;;;;;;4973734;28;20672;-70
2022/07/19 07:01:57;;;;;;;19.93;11.20;;;24.30;27.60;;;;;;4973874;28;20476;-70
2022/07/19 07:04:22;;;;;;;21.47;11.90;;;24.40;28.00;;;;;;4973528;28;20194;-70
2022/07/19 07:06:48;;;;;;;29.67;11.23;;;24.70;27.30;;;;;;4971343;28;20210;-70
2022/07/19 07:09:14;;;;;;;22.57;10.83;;;24.80;27.20;;;;;;4974406;28;20333;-70
2022/07/19 07:11:39;;;;;;;16.50;8.60;;;24.80;27.40;;;;;;4972608;28;20202;-70
2022/07/19 07:14:05;;;;;;;16.10;9.20;;;24.40;26.00;;;;;;4972416;28;20194;-71
2022/07/19 07:16:30;;;;;;;17.60;8.80;;;24.30;26.10;;;;;;4966796;28;20580;-69
2022/07/19 07:18:56;;;;;;;18.13;9.07;;;24.40;27.00;;;;;;4970867;28;20190;-70
2022/07/19 07:21:22;;;;;;;18.10;9.03;;;24.90;27.00;;;;;;4972918;28;20663;-69
2022/07/19 07:23:47;;;;;;;26.03;8.20;;;24.70;26.30;;;;;;4972056;28;20182;-69
2022/07/19 07:26:13;;;;;;;18.80;8.57;;;24.90;26.20;;;;;;4974579;28;20358;-70
2022/07/19 07:28:39;;;;;;;27.13;9.30;;;25.10;26.00;;;;;;4975338;28;20194;-69
2022/07/19 07:31:04;;;;;;;12.90;9.10;;;25.30;25.90;;;;;;4973696;28;20217;-70
2022/07/19 07:33:30;;;;;;;14.83;7.83;;;25.20;26.10;;;;;;4973497;28;20183;-69
2022/07/19 07:35:56;;;;;;;17.00;8.43;;;25.20;26.70;;;;;;4971645;28;20581;-69
2022/07/19 07:38:21;;;;;;;16.80;8.60;;;25.70;26.70;;;;;;4974534;28;20182;-69
2022/07/19 07:40:47;;;;;;;22.93;8.90;;;25.70;25.60;;;;;;4968068;28;20233;-69
2022/07/19 07:43:12;;;;;;;17.27;8.87;;;25.70;25.30;;;;;;4974411;28;20658;-69
2022/07/19 07:45:38;;;;;;;14.13;8.53;;;25.60;25.80;;;;;;4974494;28;20261;-69
2022/07/19 07:48:04;;;;;;;9.30;7.10;;;26.00;25.20;;;;;;4974758;28;20228;-69
2022/07/19 07:50:29;;;;;;;15.93;7.83;;;26.20;24.70;;;;;;4974759;28;20183;-70
2022/07/19 07:52:55;;;;;;;19.03;7.67;;;26.30;24.90;;;;;;4974189;28;20673;-70
2022/07/19 07:55:20;;;;;;;24.63;8.43;;;26.20;24.70;;;;;;4974616;28;20742;-69
2022/07/19 07:57:46;;;;;;;14.73;7.30;;;26.40;25.00;;;;;;4974383;28;20688;-70
2022/07/19 08:00:13;;;;;;;20.50;7.70;;;26.30;25.20;;;;;;4974479;28;20179;-69
2022/07/19 08:02:40;;;;;;;15.93;7.90;;;26.50;25.10;;;;;;4979844;28;20198;-70
2022/07/19 08:05:06;;;;;;;18.93;8.03;;;26.60;24.00;;;;;;4980882;28;20448;-69
2022/07/19 08:07:32;;;;;;;12.93;7.27;;;26.90;24.20;;;;;;4993256;28;20481;-70
2022/07/19 08:09:59;;;;;;;15.13;7.33;;;27.20;23.60;;;;;;4984651;28;20214;-70
2022/07/19 08:12:25;;;;;;;13.07;7.13;;;27.40;23.80;;;;;;4970878;28;20265;-69
2022/07/19 08:14:50;;;;;;;12.27;6.93;;;27.30;22.90;;;;;;4955120;29;20419;-69
2022/07/19 08:17:16;;;;;;;14.83;6.10;;;27.20;23.30;;;;;;4954684;28;20953;-69
2022/07/19 08:19:42;;;;;;;11.53;5.90;;;27.40;22.60;;;;;;4993048;28;20625;-70
2022/07/19 08:22:07;;;;;;;9.37;6.43;;;27.80;20.90;;;;;;4989550;28;20190;-70
2022/07/19 08:24:33;;;;;;;15.83;5.73;;;28.20;20.10;;;;;;4974131;28;20185;-70
2022/07/19 08:26:58;;;;;;;9.40;5.43;;;28.50;19.20;;;;;;4973493;28;20294;-70
2022/07/19 08:29:24;;;;;;;11.23;5.80;;;28.80;19.50;;;;;;4974017;28;20186;-69
2022/07/19 08:31:50;;;;;;;21.97;5.40;;;29.00;18.00;;;;;;4973241;28;20209;-70
2022/07/19 08:34:15;;;;;;;12.00;4.07;;;29.50;17.90;;;;;;4962265;28;20182;-70
2022/07/19 08:36:41;;;;;;;10.77;4.50;;;29.30;13.70;;;;;;4990598;28;20206;-70
2022/07/19 08:39:07;;;;;;;13.10;4.60;;;29.60;14.40;;;;;;4993192;28;20592;-70
2022/07/19 08:41:34;;;;;;;15.33;4.47;;;29.90;13.20;;;;;;4993212;28;20177;-70
2022/07/19 08:44:03;;;;;;;9.13;4.83;;;30.30;13.70;;;;;;4985571;28;20939;-70
2022/07/19 08:46:28;;;;;;;6.50;4.27;;;30.50;12.50;;;;;;4973455;28;20447;-69
2022/07/19 08:48:55;;;;;;;7.00;4.40;;;30.50;12.60;;;;;;4973704;28;20426;-70
2022/07/19 08:51:21;;;;;;;7.80;4.20;;;30.80;12.50;;;;;;4973136;28;20282;-70
2022/07/19 08:53:49;;;;;;;15.20;4.23;;;30.90;11.10;;;;;;4973333;28;20409;-70
2022/07/19 08:59:01;;;;;;;8.43;4.17;;;31.30;11.80;;;;;;4973530;28;20473;-70
2022/07/19 09:01:27;;;;;;;7.30;4.40;;;31.70;10.70;;;;;;4973051;28;20893;-70
2022/07/19 09:04:10;;;;;;;10.53;4.50;;;31.70;10.50;;;;;;4972399;28;20205;-70
2022/07/19 09:06:49;;;;;;;7.63;3.80;;;31.80;11.00;;;;;;4970783;28;20229;-67
2022/07/19 09:09:19;;;;;;;6.40;4.07;;;31.90;11.40;;;;;;4972516;28;20433;-68
2022/07/19 09:11:51;;;;;;;11.03;4.80;;;31.80;9.90;;;;;;4972476;28;20940;-67
2022/07/19 09:14:25;;;;;;;8.10;4.13;;;31.80;10.70;;;;;;4972947;28;20777;-67
2022/07/19 09:17:09;;;;;;;5.37;4.00;;;32.00;10.30;;;;;;4973389;28;20438;-67
2022/07/19 09:19:37;;;;;;;8.13;4.57;;;32.10;10.40;;;;;;4972999;28;20965;-67
2022/07/19 09:22:09;;;;;;;7.83;4.27;;;32.20;10.80;;;;;;4971635;28;20526;-69
2022/07/19 09:24:43;;;;;;;7.20;4.43;;;32.10;10.30;;;;;;4973013;28;20555;-67
2022/07/19 09:27:14;;;;;;;5.63;4.10;;;32.20;10.90;;;;;;4973075;28;20437;-67
2022/07/19 09:29:42;;;;;;;6.40;4.37;;;32.40;10.80;;;;;;4973148;28;20414;-67
2022/07/19 09:32:14;;;;;;;11.17;4.53;;;32.50;11.30;;;;;;4972098;28;20460;-69
2022/07/19 09:35:01;;;;;;;8.43;4.40;;;32.40;10.20;;;;;;4972920;28;20409;-67
2022/07/19 09:37:34;;;;;;;5.33;4.30;;;32.50;10.80;;;;;;4971374;28;20469;-67
2022/07/19 09:40:08;;;;;;;11.23;4.47;;;32.60;9.70;;;;;;4972806;28;20432;-67
2022/07/19 09:42:39;;;;;;;11.63;4.20;;;32.90;10.70;;;;;;4972134;28;20913;-69
2022/07/19 09:45:13;;;;;;;6.77;3.90;;;32.70;9.60;;;;;;4973097;28;20883;-67
2022/07/19 09:47:45;;;;;;;5.50;4.20;;;32.90;11.30;;;;;;4972947;28;20810;-67
2022/07/19 09:50:16;;;;;;;6.73;4.50;;;33.10;10.50;;;;;;4972637;28;20481;-68
2022/07/19 09:52:43;;;;;;;13.87;4.80;;;33.10;9.20;;;;;;4972202;28;20493;-67
2022/07/19 09:55:09;;;;;;;8.00;4.40;;;33.40;8.90;;;;;;4972421;28;20410;-67
2022/07/19 09:57:41;;;;;;;7.40;4.17;;;33.50;8.70;;;;;;4973079;28;20426;-67
2022/07/19 10:00:09;;;;;;;8.90;4.23;;;33.50;9.20;;;;;;4972831;28;20414;-68
2022/07/19 10:02:38;;;;;;;10.17;4.50;;;33.60;8.60;;;;;;4972196;28;20917;-68
2022/07/19 10:05:05;;;;;;;10.40;4.70;;;33.80;8.30;;;;;;4972128;28;20459;-68
2022/07/19 10:07:32;;;;;;;5.87;4.20;;;33.80;7.60;;;;;;4972157;28;20441;-70
2022/07/19 10:10:02;;;;;;;7.00;4.03;;;34.00;7.50;;;;;;4970897;28;20957;-72
2022/07/19 10:12:28;;;;;;;6.27;4.60;;;34.00;6.60;;;;;;4972102;28;20453;-70
2022/07/19 10:14:55;;;;;;;10.10;4.63;;;34.00;7.50;;;;;;4969610;28;20942;-68
2022/07/19 10:17:30;;;;;;;9.20;4.57;;;34.00;8.40;;;;;;4953009;28;20434;-68
2022/07/19 10:19:57;;;;;;;6.63;4.27;;;34.10;8.20;;;;;;4953113;29;20410;-68
2022/07/19 10:22:25;;;;;;;5.10;4.00;;;34.30;6.50;;;;;;4953025;29;20453;-70
2022/07/19 10:24:52;;;;;;;14.53;4.33;;;34.50;5.90;;;;;;4956963;28;20444;-68
2022/07/19 10:27:42;;;;;;;9.07;4.33;;;34.20;6.80;;;;;;4956947;28;20513;-68
2022/07/19 10:30:07;;;;;;;6.40;4.37;;;34.30;6.50;;;;;;4956693;29;20398;-68
2022/07/19 10:32:34;;;;;;;6.20;4.13;;;34.50;6.60;;;;;;4956349;29;20476;-69
2022/07/19 10:35:18;;;;;;;12.83;4.33;;;34.80;7.40;;;;;;4956677;28;20658;-70
2022/07/19 10:37:52;;;;;;;7.70;4.27;;;35.20;6.40;;;;;;4956490;28;20584;-68
2022/07/19 10:40:40;;;;;;;11.20;4.60;;;35.40;5.90;;;;;;4959255;28;20424;-70
2022/07/19 10:43:12;;;;;;;6.80;4.40;;;35.40;5.60;;;;;;4975608;28;20410;-69
2022/07/19 10:45:43;;;;;;;7.60;4.00;;;35.10;5.80;;;;;;4975972;28;20409;-69
2022/07/19 10:48:11;;;;;;;8.03;4.50;;;35.10;5.50;;;;;;4974765;28;20420;-69
2022/07/19 10:50:46;;;;;;;9.60;4.23;;;35.50;3.90;;;;;;4976037;28;20980;-69
2022/07/19 10:53:40;;;;;;;6.93;4.13;;;35.70;5.50;;;;;;4975581;28;20536;-69
2022/07/19 10:56:22;;;;;;;7.00;4.40;;;35.70;4.30;;;;;;4975687;28;20450;-69
2022/07/19 10:59:00;;;;;;;6.10;4.20;;;35.90;4.30;;;;;;4969211;28;20431;-69
2022/07/19 11:01:28;;;;;;;6.10;4.40;;;35.90;4.40;;;;;;4956200;29;20762;-69
2022/07/19 11:04:14;;;;;;;6.23;4.30;;;36.30;4.50;;;;;;4954715;29;20422;-69
2022/07/19 11:06:40;;;;;;;8.67;4.80;;;36.70;4.00;;;;;;4955771;28;20461;-69
2022/07/19 11:09:05;;;;;;;8.70;4.40;;;36.80;3.50;;;;;;4956202;29;20414;-69
2022/07/19 11:11:31;;;;;;;14.47;4.47;;;36.80;3.70;;;;;;4955952;29;20199;-69
2022/07/19 11:13:58;;;;;;;12.10;5.07;;;36.90;3.60;;;;;;4959405;28;20179;-69
2022/07/19 11:16:25;;;;;;;7.77;4.07;;;37.00;3.70;;;;;;4975458;28;20202;-69
2022/07/19 11:18:51;;;;;;;6.87;4.57;;;37.50;4.20;;;;;;4975351;28;20900;-69
2022/07/19 11:21:17;;;;;;;12.63;4.67;;;37.90;4.10;;;;;;4974819;28;20504;-71
2022/07/19 11:23:44;;;;;;;14.33;4.20;;;37.90;3.40;;;;;;4975115;28;20178;-69
2022/07/19 11:26:21;;;;;;;7.37;4.50;;;37.80;3.20;;;;;;4975144;28;20445;-69
2022/07/19 11:28:48;;;;;;;7.97;5.00;;;37.60;2.80;;;;;;4963145;28;20492;-70
2022/07/19 11:31:24;;;;;;;10.00;4.83;;;38.00;3.30;;;;;;4955412;29;20474;-69
2022/07/19 11:33:57;;;;;;;5.47;4.00;;;38.20;3.20;;;;;;4955684;29;20421;-69
2022/07/19 11:36:24;;;;;;;5.63;3.90;;;38.60;1.90;;;;;;4954115;28;20458;-69
2022/07/19 11:39:00;;;;;;;12.83;3.97;;;39.30;2.20;;;;;;4956344;29;20817;-70
2022/07/19 11:41:31;;;;;;;6.97;3.93;;;40.10;1.00;;;;;;4955365;29;20814;-70
2022/07/19 11:43:59;;;;;;;5.63;3.63;;;41.40;1.00;;;;;;4967506;28;20530;-69
2022/07/19 11:46:32;;;;;;;6.70;3.83;;;41.90;1.00;;;;;;4969854;28;20818;-70
2022/07/19 11:49:00;;;;;;;6.40;3.67;;;42.30;1.00;;;;;;4972046;28;20465;-72
2022/07/19 11:51:26;;;;;;;11.23;3.87;;;42.50;1.00;;;;;;4968856;28;20492;-71
2022/07/19 11:53:54;;;;;;;4.97;3.63;;;42.60;1.00;;;;;;4970654;28;20822;-72
2022/07/19 11:56:20;;;;;;;6.53;3.70;;;42.90;1.00;;;;;;4971956;28;20453;-69
2022/07/19 11:58:46;;;;;;;9.07;3.73;;;41.90;1.00;;;;;;4973508;28;20437;-71
2022/07/19 12:01:12;;;;;;;6.33;3.77;;;41.60;1.00;;;;;;4972466;28;20553;-71
2022/07/19 12:03:37;;;;;;;6.63;3.13;;;41.10;1.00;;;;;;4973746;28;20512;-69
2022/07/19 12:06:05;;;;;;;8.17;3.93;;;40.80;1.00;;;;;;4972750;28;20209;-72
2022/07/19 12:08:44;;;;;;;4.90;3.70;;;41.50;1.00;;;;;;4974215;28;20252;-69
2022/07/19 12:11:16;;;;;;;14.40;4.20;;;41.90;1.00;;;;;;4972182;28;20512;-69
2022/07/19 12:13:43;;;;;;;6.50;3.43;;;42.00;1.00;;;;;;4973799;28;20448;-71
2022/07/19 12:16:13;;;;;;;4.20;3.47;;;42.10;1.00;;;;;;4973648;28;20492;-71
2022/07/19 12:18:50;;;;;;;12.17;3.63;;;42.30;1.00;;;;;;4972500;28;20528;-70
2022/07/19 12:21:43;;;;;;;11.73;3.50;;;42.00;1.00;;;;;;4972776;28;20429;-69
2022/07/19 12:24:24;;;;;;;6.33;3.47;;;42.00;1.00;;;;;;4973154;28;20459;-70
2022/07/19 12:26:57;;;;;;;7.87;4.07;;;42.10;1.00;;;;;;4968397;28;20476;-71
2022/07/19 12:29:44;;;;;;;9.80;3.30;;;42.70;1.00;;;;;;4968365;28;20446;-70
2022/07/19 12:32:12;;;;;;;4.93;3.50;;;42.00;1.00;;;;;;4970648;28;20465;-71
2022/07/19 12:34:48;;;;;;;11.70;4.10;;;41.20;1.00;;;;;;4971471;28;20466;-69
2022/07/19 12:37:35;;;;;;;8.10;3.37;;;40.90;1.00;;;;;;4958283;28;20545;-69
2022/07/19 12:40:12;;;;;;;10.30;3.67;;;41.90;1.00;;;;;;4953667;29;20509;-69
2022/07/19 12:43:00;;;;;;;8.00;4.37;;;42.20;1.00;;;;;;4954269;29;20426;-69
2022/07/19 12:45:29;;;;;;;12.77;4.30;;;43.00;1.00;;;;;;4972208;28;20428;-69
2022/07/19 12:47:54;;;;;;;19.00;5.03;;;43.70;1.00;;;;;;4973018;28;20422;-69
2022/07/19 12:50:21;;;;;;;11.60;3.90;;;43.70;1.00;;;;;;4971921;28;20823;-70